Rock Stream, NY (14878)

12:22 PM EDT on August 03, 2015 (GMT -0400)
Lakemont | | Change Station
CLOSE
Current Station
Personal Weather Station
Location: Dundee, NY
Elevation: 517 ft
Nearby Weather Stations

Elev 517 ft 42.51 °N, 76.92 °W | Updated 1 minute ago

Mostly Cloudy
Mostly Cloudy
80.0 °F
Feels Like 81 °F
N
2.0
Wind Variable Wind from ESE
Gusts 2.0 mph

Today
High -- | Low -- °F
--% Chance of Precip.
Yesterday
High -- | Low -- °F
Precip. -- in
6:01 AM 8:25 PM
Waning Gibbous, 86% visible
Pressure 29.78 in
Visibility 10.0 miles
Clouds Few 11000 ft
Heat Index 81 °F
Dew Point 63 °F
Humidity 56%
Rainfall 0.00 in
Snow Depth Not available.
UV 9 out of 12
Pollen 5.60 out of 12
Air Quality Not available.
Flu Activity Not available.
METAR KPEO 031553Z AUTO 25005KT 10SM FEW110 24/14 A2980 RMK AO2 SLP083 T02440144

More Conditions Fewer Conditions

Pressure 29.78 in
Visibility 10.0 miles
Clouds Few 11000 ft
Heat Index 81 °F
Dew Point 63 °F
Humidity 56%
Rainfall 0.00 in
Snow Depth Not available.
UV 9 out of 12
Pollen 5.60 out of 12
Air Quality Not available.
Flu Activity Not available.
METAR KPEO 031553Z AUTO 25005KT 10SM FEW110 24/14 A2980 RMK AO2 SLP083 T02440144

More Conditions Fewer Conditions

10-Day Weather Forecast

×

Almanac

Astronomy

Aug. 03, 2015 Rise Set
Actual Time
Civil Twilight
Nautical Twilight
Astronomical Twilight
Moon
Length of Visible Light
Length of Day
Tomorrow will be .
, % of the Moon is Illuminated

Today's Extremes

State Highs State Lows

Community

WunderPhotos

Upload Photos

1,843,667 photos uploaded!

WunderBlogs® & News

Nearby

Air Quality

  Air Quality AQ Index Pollutant
Not available.

Snow Depth

Station Depth Elevation

Earthquake Activity

City Distance Mag. Time & Date
Minimum magnitude displayed is 2.5.

Coastal Water Temperatures

Place Temperature

Stations

Nearby Weather Stations

Station Location Temp. Windchill Dew Point Humidity Wind Precip. Elev Updated Type